SKRH/RCH METAR and TAF weather

Enter ICAO airport designator
Station Type Date Time Source
SKRH METAR 2019/05/25 15:00 UTC NOAA

SKRH 251500Z 10008KT 9999 BKN020 SCT100 30/24 A2986


Station Type Date Time Source
SKRH Decoded METAR 2019/05/25 15:00 UTC NOAA

Riohacha / Almirante Padilla, Colombia (SKRH) 11-32N 072-56W 4M
May 25, 2019 - 11:00 AM EDT / 2019.05.25 1500 UTC
Wind: from the E (100 degrees) at 9 MPH (8 KT):0
Visibility: greater than 7 mile(s):0
Sky conditions: mostly cloudy
Temperature: 86 F (30 C)
Heat index: 95.0 F (35.0 C):1
Dew Point: 75 F (24 C)
Relative Humidity: 70%
Pressure (altimeter): 29.86 in. Hg (1011 hPa)
ob: SKRH 251500Z 10008KT 9999 BKN020 SCT100 30/24 A2986
cycle: 15

Station Type Date Time Source
SKRH TAF 2015/07/31 18:51 UTC NOAA

TAF SKRH 311700Z 3118/0118 07010KT 9999 SCT017
TEMPO 3120/0103 09015KT CAVOK
TEMPO 0109/0114 9000 BKN015 TX36/3118Z TN28/0110Z

Example: see airport list